createdAt,value
2022-08-25T00:00:32.804Z,7.93
2022-08-25T00:05:34.677Z,6.45
2022-08-25T00:10:38.341Z,6.53
2022-08-25T00:15:39.900Z,7.15
2022-08-25T00:20:41.354Z,9.75
2022-08-25T00:25:50.626Z,8.77
2022-08-25T00:30:52.277Z,8.35
2022-08-25T00:35:55.646Z,6.95
2022-08-25T00:41:06.303Z,7.25
2022-08-25T00:46:13.222Z,9.00
2022-08-25T00:51:21.348Z,11.20
2022-08-25T00:56:23.806Z,8.82
2022-08-25T01:01:26.008Z,8.43
2022-08-25T01:06:31.713Z,11.57
2022-08-25T01:11:34.260Z,8.80
2022-08-25T01:16:37.907Z,7.55
2022-08-25T01:21:46.446Z,8.40
2022-08-25T01:26:47.852Z,7.65
2022-08-25T01:32:04.587Z,8.38
2022-08-25T01:37:06.498Z,7.57
2022-08-25T01:42:10.823Z,7.85
2022-08-25T01:47:13.392Z,9.40
2022-08-25T01:52:19.275Z,9.35
2022-08-25T01:57:23.024Z,8.98
2022-08-25T02:02:24.301Z,11.77
2022-08-25T02:07:27.637Z,13.13
2022-08-25T02:12:31.442Z,12.95
2022-08-25T02:17:35.881Z,12.50
2022-08-25T02:22:37.248Z,13.07
2022-08-25T02:27:38.686Z,12.43
2022-08-25T02:32:40.337Z,11.57
2022-08-25T02:37:41.893Z,10.50
2022-08-25T02:42:43.946Z,12.07
2022-08-25T02:47:45.429Z,12.27
2022-08-25T02:52:49.759Z,17.08
2022-08-25T02:57:51.027Z,11.45
2022-08-25T03:02:52.261Z,11.05
2022-08-25T03:07:54.052Z,13.55
2022-08-25T03:12:55.461Z,16.23
2022-08-25T03:17:57.077Z,12.30
2022-08-25T03:23:05.399Z,12.13
2022-08-25T03:28:07.254Z,11.53
2022-08-25T03:33:08.482Z,12.95
2022-08-25T03:38:10.825Z,11.98
2022-08-25T03:43:12.497Z,11.35
2022-08-25T03:48:15.414Z,11.88
2022-08-25T03:53:17.637Z,11.82
2022-08-25T03:58:18.867Z,10.88
2022-08-25T04:03:20.226Z,13.25
2022-08-25T04:08:21.855Z,12.30
2022-08-25T04:13:23.301Z,11.90
2022-08-25T04:18:24.476Z,10.10
2022-08-25T04:23:25.637Z,10.48
2022-08-25T04:28:26.865Z,9.93
2022-08-25T04:33:28.363Z,10.40
2022-08-25T04:38:29.902Z,12.25
2022-08-25T04:43:32.635Z,14.38
2022-08-25T04:48:34.416Z,12.70
2022-08-25T04:53:36.836Z,10.77
2022-08-25T04:58:38.608Z,14.82
2022-08-25T05:03:39.973Z,12.63
2022-08-25T05:08:41.545Z,10.23
2022-08-25T05:13:51.315Z,11.33
2022-08-25T05:18:53.960Z,11.45
2022-08-25T05:23:59.820Z,8.57
2022-08-25T05:29:03.763Z,10.35
2022-08-25T05:34:07.098Z,9.07
2022-08-25T05:39:09.412Z,9.43
2022-08-25T05:44:11.916Z,12.73
2022-08-25T05:49:13.208Z,8.73
2022-08-25T05:54:14.741Z,7.60
2022-08-25T05:59:16.191Z,8.00
2022-08-25T06:04:18.732Z,5.90
2022-08-25T06:09:21.736Z,5.68
2022-08-25T06:14:24.340Z,6.00
2022-08-25T06:19:26.506Z,4.90
2022-08-25T06:24:28.862Z,6.95
2022-08-25T06:29:30.162Z,10.30
2022-08-25T06:34:32.067Z,8.80
2022-08-25T06:39:33.690Z,6.63
2022-08-25T06:44:35.085Z,8.00
2022-08-25T06:49:36.410Z,8.65
2022-08-25T06:54:38.099Z,8.80
2022-08-25T06:59:41.470Z,4.88
2022-08-25T07:04:43.085Z,4.13
2022-08-25T07:09:44.308Z,3.90
2022-08-25T07:14:58.021Z,5.68
2022-08-25T07:20:05.541Z,5.95
2022-08-25T07:25:07.995Z,3.95
2022-08-25T07:30:09.603Z,3.83
2022-08-25T07:35:15.669Z,4.25
2022-08-25T07:40:24.360Z,4.55
2022-08-25T07:45:31.432Z,8.73
2022-08-25T07:50:33.577Z,8.18
2022-08-25T07:55:38.315Z,8.20
2022-08-25T08:00:42.415Z,2.78
2022-08-25T08:05:43.708Z,5.97
2022-08-25T08:11:03.202Z,6.85
2022-08-25T08:16:11.394Z,7.28
2022-08-25T08:21:19.295Z,5.88
2022-08-25T08:26:31.663Z,3.22
2022-08-25T08:31:48.546Z,4.57
2022-08-25T08:36:50.275Z,5.68
2022-08-25T08:42:18.608Z,4.35
2022-08-25T08:47:39.312Z,6.57
2022-08-25T08:52:53.961Z,6.95
2022-08-25T08:57:58.221Z,2.42
2022-08-25T09:03:05.493Z,2.35
2022-08-25T09:08:11.766Z,5.53
2022-08-25T09:13:31.369Z,3.05
2022-08-25T09:19:26.440Z,5.00
2022-08-25T09:24:58.046Z,3.40
2022-08-25T09:30:07.363Z,8.65
2022-08-25T09:35:18.954Z,4.70
2022-08-25T09:40:20.664Z,3.47
2022-08-25T09:45:42.329Z,6.68
2022-08-25T09:50:46.715Z,1.88
2022-08-25T09:55:59.899Z,3.10
2022-08-25T10:01:13.198Z,2.88
2022-08-25T10:06:15.137Z,2.80
2022-08-25T10:11:42.724Z,1.85
2022-08-25T10:16:47.193Z,1.42
2022-08-25T10:22:06.457Z,4.25
2022-08-25T10:27:37.272Z,1.67
2022-08-25T10:32:45.483Z,3.55
2022-08-25T10:38:07.180Z,4.00
2022-08-25T10:43:35.050Z,3.85
2022-08-25T10:48:36.263Z,2.35
2022-08-25T10:53:56.343Z,3.55
2022-08-25T10:59:07.059Z,4.40
2022-08-25T11:04:27.735Z,2.72
2022-08-25T11:09:33.899Z,3.42
2022-08-25T11:15:01.261Z,3.47
2022-08-25T11:20:20.542Z,3.63
2022-08-25T11:25:34.433Z,2.83
2022-08-25T11:30:37.464Z,4.63
2022-08-25T11:35:59.179Z,3.22
2022-08-25T11:41:23.451Z,4.78
2022-08-25T11:47:06.812Z,2.72
2022-08-25T11:52:32.777Z,2.40
2022-08-25T11:57:37.597Z,1.70
2022-08-25T12:02:43.721Z,6.63
2022-08-25T12:08:12.950Z,6.55
2022-08-25T12:13:37.649Z,4.45
2022-08-25T12:18:45.720Z,3.30
2022-08-25T12:24:05.574Z,2.60
2022-08-25T12:29:26.065Z,2.65
2022-08-25T12:34:27.337Z,2.50
2022-08-25T12:39:35.960Z,2.90
2022-08-25T12:44:49.523Z,3.38
2022-08-25T12:49:50.973Z,3.42
2022-08-25T12:54:59.849Z,3.75
2022-08-25T13:00:15.442Z,3.42
2022-08-25T13:05:33.906Z,3.35
2022-08-25T13:10:51.673Z,4.50
2022-08-25T13:16:06.427Z,6.35
2022-08-25T13:21:21.204Z,3.72
2022-08-25T13:26:27.039Z,1.73
2022-08-25T13:31:30.973Z,4.55
2022-08-25T13:36:59.933Z,6.22
2022-08-25T13:42:06.464Z,2.42
2022-08-25T13:47:24.147Z,2.53
2022-08-25T13:52:29.122Z,2.88
2022-08-25T13:57:31.577Z,3.08
2022-08-25T14:02:49.802Z,2.25
2022-08-25T14:08:09.237Z,1.60
2022-08-25T14:13:30.481Z,6.05
2022-08-25T14:18:33.392Z,8.35
2022-08-25T14:23:37.528Z,5.97
2022-08-25T14:28:39.001Z,4.97
2022-08-25T14:33:50.068Z,6.93
2022-08-25T14:38:54.784Z,6.35
2022-08-25T14:43:56.273Z,10.13
2022-08-25T14:49:02.109Z,6.75
2022-08-25T14:54:06.885Z,6.55
2022-08-25T14:59:10.147Z,4.68
2022-08-25T15:04:30.598Z,6.32
2022-08-25T15:09:33.402Z,6.13
2022-08-25T15:14:35.005Z,6.13
2022-08-25T15:19:36.335Z,4.38
2022-08-25T15:24:38.995Z,6.28
2022-08-25T15:29:41.029Z,10.23
2022-08-25T15:34:42.407Z,6.03
2022-08-25T15:39:44.871Z,8.88
2022-08-25T15:44:53.110Z,7.18
2022-08-25T15:50:15.691Z,7.28
2022-08-25T15:55:17.270Z,9.35
2022-08-25T16:00:19.210Z,10.88
2022-08-25T16:05:25.988Z,10.73
2022-08-25T16:10:27.625Z,8.60
2022-08-25T16:15:29.042Z,12.23
2022-08-25T16:20:32.631Z,10.68
2022-08-25T16:25:39.628Z,11.32
2022-08-25T16:30:52.913Z,10.77
2022-08-25T16:36:10.999Z,10.02
2022-08-25T16:41:18.187Z,10.73
2022-08-25T16:46:21.236Z,12.57
2022-08-25T16:51:25.599Z,11.85
2022-08-25T16:56:34.406Z,11.00
2022-08-25T17:01:37.193Z,13.48
2022-08-25T17:06:41.721Z,11.23
2022-08-25T17:11:55.927Z,15.48
2022-08-25T17:16:57.298Z,17.48
2022-08-25T17:21:58.838Z,12.48
2022-08-25T17:27:01.411Z,13.95
2022-08-25T17:32:04.439Z,16.35
2022-08-25T17:37:06.083Z,13.43
2022-08-25T17:42:07.464Z,13.93
2022-08-25T17:47:10.476Z,15.75
2022-08-25T17:52:12.411Z,18.08
2022-08-25T17:57:15.397Z,19.92
2022-08-25T18:02:16.584Z,17.23
2022-08-25T18:07:18.445Z,21.30
2022-08-25T18:12:20.170Z,17.35
2022-08-25T18:17:22.979Z,21.25
2022-08-25T18:22:24.324Z,18.55
2022-08-25T18:27:26.105Z,18.15
2022-08-25T18:32:28.626Z,20.55
2022-08-25T18:37:48.992Z,24.08
2022-08-25T18:43:02.604Z,22.88
2022-08-25T18:48:04.447Z,22.15
2022-08-25T18:53:09.057Z,24.92
2022-08-25T18:58:11.497Z,21.63
2022-08-25T19:03:14.677Z,22.73
2022-08-25T19:08:18.431Z,23.65
2022-08-25T19:13:36.713Z,16.15
2022-08-25T19:18:38.372Z,21.55
2022-08-25T19:23:39.709Z,15.38
2022-08-25T19:29:19.601Z,16.40
2022-08-25T19:34:41.370Z,14.32
2022-08-25T19:39:52.928Z,14.27
2022-08-25T19:44:54.539Z,14.57
2022-08-25T19:49:57.739Z,20.25
2022-08-25T19:55:06.807Z,14.32
2022-08-25T20:00:22.935Z,12.93
2022-08-25T20:05:24.252Z,14.18
2022-08-25T20:10:28.356Z,12.05
2022-08-25T20:15:34.285Z,13.80
2022-08-25T20:20:45.238Z,11.40
2022-08-25T20:25:53.408Z,12.60
2022-08-25T20:30:55.699Z,11.90
2022-08-25T20:35:58.633Z,11.23
2022-08-25T20:41:00.682Z,10.13
2022-08-25T20:46:04.288Z,8.02
2022-08-25T20:51:06.971Z,10.07
2022-08-25T20:56:10.963Z,7.35
2022-08-25T21:01:23.114Z,9.25
2022-08-25T21:06:24.656Z,9.55
2022-08-25T21:11:26.487Z,6.18
2022-08-25T21:16:28.898Z,7.65
2022-08-25T21:21:30.516Z,5.10
2022-08-25T21:26:31.916Z,11.20
2022-08-25T21:31:35.601Z,4.55
2022-08-25T21:36:43.773Z,7.18
2022-08-25T21:41:47.656Z,6.20
2022-08-25T21:46:58.454Z,10.55
2022-08-25T21:52:04.338Z,8.48
2022-08-25T21:57:07.206Z,10.73
2022-08-25T22:02:11.051Z,10.05
2022-08-25T22:07:13.187Z,12.23
2022-08-25T22:12:14.524Z,10.45
2022-08-25T22:17:17.333Z,11.90
2022-08-25T22:22:28.144Z,11.77
2022-08-25T22:27:31.005Z,12.73
2022-08-25T22:32:32.352Z,8.27
2022-08-25T22:37:34.138Z,9.70
2022-08-25T22:42:37.312Z,9.13
2022-08-25T22:47:39.072Z,6.93
2022-08-25T22:52:42.646Z,6.43
2022-08-25T22:57:54.737Z,8.98
2022-08-25T23:02:56.401Z,9.52
2022-08-25T23:07:57.977Z,9.85
2022-08-25T23:12:59.555Z,6.05
2022-08-25T23:18:00.929Z,10.15
2022-08-25T23:23:02.388Z,6.05
2022-08-25T23:28:03.799Z,8.00
2022-08-25T23:33:05.032Z,6.40
2022-08-25T23:38:06.685Z,9.13
2022-08-25T23:43:09.895Z,10.75
2022-08-25T23:48:11.178Z,3.97
2022-08-25T23:53:15.373Z,4.82
2022-08-25T23:58:17.123Z,4.93
